Flight Track Log - Related Links

Times and Time Zones

All times are in EST time to prevent confusion due to time zone crossing. See the N550JG flight status page for this flight to view local times or setup timezone preferences in your user account.

Time Position Orientation Groundspeed Altitude Reporting Facility
EST Latitude Longitude Course Direction KTS MPH feet Rate Location/Type
Fri 02:49:17 PM 31.4394 -82.5150 192° South 139 160 3,200  Level Jacksonville Center
Fri 02:50:17 PM 31.4186 -82.5200 192° South 114 131 3,800 550 Climbing Jacksonville Center
Fri 02:51:17 PM 31.3914 -82.5250 189° South 101 116 4,300 550 Climbing Jacksonville Center
Fri 02:52:17 PM 31.3664 -82.5228 176° South 95 109 4,900 300 Climbing Jacksonville Center
Fri 02:53:17 PM 31.3372 -82.5253 184° South 103 119 4,900  Level Jacksonville Center
Fri 02:54:17 PM 31.3036 -82.5253 180° South 115 132 4,900 50 Level Jacksonville Center
Fri 02:55:17 PM 31.2683 -82.5231 177° South 126 145 5,000 300 Climbing Jacksonville Center
Fri 02:56:17 PM 31.2411 -82.5039 149° Southeast 113 130 5,500 500 Climbing Jacksonville Center
Fri 02:57:17 PM 31.2158 -82.4869 150° Southeast 113 130 6,000 450 Climbing Jacksonville Center
Fri 02:58:17 PM 31.1908 -82.4700 150° Southeast 108 124 6,400 400 Climbing Jacksonville Center
Fri 02:59:17 PM 31.1656 -82.4508 147° Southeast 108 124 6,800 300 Climbing Jacksonville Center
Fri 03:00:17 PM 31.1447 -82.4289 138° Southeast 103 119 7,000 100 Climbing Jacksonville Center
Fri 03:01:17 PM 31.1153 -82.3975 138° Southeast 115 132 7,000 -50 Level Jacksonville Center
Fri 03:02:17 PM 31.0903 -82.3711 138° Southeast 126 145 6,900 -50 Descending Jacksonville Center
Fri 03:03:17 PM 31.0628 -82.3397 136° Southeast 126 145 6,900  Level Jacksonville Center
Fri 03:03:53 PM 31.0483 -82.3228 135° Southeast 132 152 6,900 100 Level Jacksonville Center
Fri 03:04:17 PM 31.0378 -82.3083 130° Southeast 131 151 7,000 140 Climbing Jacksonville Center
Fri 03:04:36 PM 31.0272 -82.2986 142° Southeast 131 151 7,000  Level Jacksonville Center
Fri 03:05:17 PM 31.0106 -82.2792 135° Southeast 131 151 7,000 -90 Level Jacksonville Center
Fri 03:05:43 PM 30.9958 -82.2625 136° Southeast 135 155 6,900  Descending Jacksonville Center
Fri 03:06:17 PM 30.9831 -82.2481 136° Southeast 136 157 7,000 109 Climbing Jacksonville Center
Fri 03:06:38 PM 30.9767 -82.2336 117° Southeast 138 159 7,000  Level Jacksonville Center
Fri 03:07:17 PM 30.9581 -82.2167 142° Southeast 136 157 7,000 -90 Level Jacksonville Center
Fri 03:07:45 PM 30.9433 -82.2022 140° Southeast 130 150 6,900 -100 Descending Jacksonville Center
Fri 03:08:17 PM 30.9286 -82.1950 157° South 131 151 6,900  Level Jacksonville Center
Fri 03:08:46 PM 30.9097 -82.1881 162° South 123 142 6,900  Level Jacksonville Center
Fri 03:09:17 PM 30.8950 -82.1833 165° South 120 138 6,900  Level Jacksonville Center
Fri 03:09:47 PM 30.8764 -82.1761 162° South 121 139 6,900  Level Jacksonville Center
Fri 03:10:17 PM 30.8636 -82.1739 172° South 120 138 6,900  Level Jacksonville Center
Fri 03:10:42 PM 30.8450 -82.1667 162° South 121 139 6,900 100 Level Jacksonville Center
Fri 03:11:17 PM 30.8303 -82.1667 180° South 120 138 7,000  Climbing Jacksonville Center
Fri 03:11:43 PM 30.8136 -82.1717 194° South 122 140 6,900 -100 Descending Jacksonville Center
Fri 03:12:17 PM 30.7969 -82.1719 181° South 120 138 6,900 97 Level Jacksonville Center
Fri 03:12:45 PM 30.7803 -82.1744 187° South 121 139 7,000  Climbing Jacksonville Center
Fri 03:13:17 PM 30.7636 -82.1722 173° South 120 138 6,900 -100 Descending Jacksonville Center
Fri 03:13:45 PM 30.7447 -82.1722 180° South 124 143 6,900  Level Jacksonville Center
Fri 03:14:52 PM 30.7050 -82.1725 180° South 125 144 6,900  Level Jacksonville Center
Fri 03:15:54 PM 30.6694 -82.1728 180° South 127 146 6,900 49 Level Jacksonville Center
Fri 03:16:54 PM 30.6339 -82.1706 177° South 125 144 7,000 50 Climbing Jacksonville Center
Fri 03:17:55 PM 30.5964 -82.1711 181° South 128 147 7,000 -49 Level Jacksonville Center
Fri 03:18:56 PM 30.5608 -82.1711 180° South 127 146 6,900 -49 Descending Jacksonville Center
Fri 03:19:57 PM 30.5256 -82.1692 177° South 127 146 6,900  Level Jacksonville Center
Fri 03:20:52 PM 30.4942 -82.1717 184° South 127 146 6,900 52 Level Jacksonville Center
Fri 03:21:53 PM 30.4586 -82.1672 174° South 128 147 7,000 47 Climbing Jacksonville Center
Fri 03:23:00 PM 30.4169 -82.1675 180° South 127 146 7,000 -49 Level Jacksonville Center
Fri 03:23:55 PM 30.3856 -82.1678 180° South 128 147 6,900 -49 Descending Jacksonville Center
Fri 03:25:02 PM 30.3458 -82.1656 177° South 128 147 6,900  Level Jacksonville Center
Fri 03:27:04 PM 30.2728 -82.1639 179° South 168 193 6,900 33 Level Jacksonville Center
Fri 03:28:05 PM 30.2414 -82.1639 180° South 122 140 7,000  Climbing Jacksonville Center
Fri 03:29:00 PM 30.2061 -82.1642 180° South 125 144 6,900 -54 Descending Jacksonville Center
Fri 03:29:56 PM 30.1725 -82.1644 180° South 124 143 6,900  Level Jacksonville Center
Fri 03:30:57 PM 30.1369 -82.1625 177° South 124 143 6,900  Level Jacksonville Center
Fri 03:31:58 PM 30.1017 -82.1628 180° South 123 142 6,900  Level Jacksonville Center
Fri 03:32:53 PM 30.0703 -82.1606 176° South 124 143 6,900  Level Jacksonville Center
Fri 03:34:00 PM 30.0328 -82.1608 180° South 125 144 6,900  Level Jacksonville Center
Fri 03:35:07 PM 29.9931 -82.1611 180° South 126 145 6,900  Level Jacksonville Center
Fri 03:36:02 PM 29.9617 -82.1614 180° South 128 147 6,900 49 Level Jacksonville Center
Fri 03:37:09 PM 29.9219 -82.1592 177° South 130 150 7,000  Climbing Jacksonville Center
Fri 03:38:10 PM 29.8844 -82.1572 177° South 131 151 6,900 -49 Descending Jacksonville Center
Fri 03:39:11 PM 29.8469 -82.1550 177° South 130 150 6,900  Level Jacksonville Center
Fri 03:40:12 PM 29.8114 -82.1553 180° South 131 151 6,900  Level Jacksonville Center
Fri 03:41:13 PM 29.7717 -82.1581 183° South 131 151 6,900  Level Jacksonville Center
Fri 03:42:20 PM 29.7319 -82.1558 177° South 132 152 6,900  Level Jacksonville Center
Fri 03:43:15 PM 29.6986 -82.1536 177° South 131 151 6,900  Level Jacksonville Center
Fri 03:44:16 PM 29.6589 -82.1542 181° South 133 153 6,900 49 Level Jacksonville Center
Fri 03:45:17 PM 29.6233 -82.1544 180° South 131 151 7,000  Climbing Jacksonville Center
Fri 03:46:24 PM 29.5858 -82.1522 177° South 125 144 6,900  Descending Jacksonville Center
Fri 03:47:19 PM 29.5544 -82.1547 184° South 122 140 7,000  Climbing Jacksonville Center
Fri 03:48:20 PM 29.5192 -82.1528 177° South 129 148 6,900 -52 Descending Jacksonville Center
Fri 03:49:15 PM 29.4856 -82.1506 177° South 129 148 6,900  Level Jacksonville Center
Fri 03:50:10 PM 29.4522 -82.1508 180° South 129 148 6,900  Level Jacksonville Center
Fri 03:51:17 PM 29.4106 -82.1489 178° South 131 151 6,900  Level Jacksonville Center
Fri 03:52:18 PM 29.3750 -82.1514 184° South 130 150 6,900  Level Jacksonville Center
Fri 03:53:19 PM 29.3375 -82.1517 180° South 128 147 6,900  Level Jacksonville Center
Fri 03:54:20 PM 29.3019 -82.1472 174° South 128 147 6,900  Level Jacksonville Center
Fri 03:55:21 PM 29.2644 -82.1475 180° South 131 151 6,900  Level Jacksonville Center
Fri 03:56:22 PM 29.2267 -82.1456 177° South 132 152 6,900  Level Jacksonville Center
Fri 03:57:17 PM 29.1933 -82.1481 184° South 134 154 6,900  Level Jacksonville Center
Fri 03:58:18 PM 29.1536 -82.1483 180° South 135 155 6,900  Level Jacksonville Center
Fri 03:59:25 PM 29.1142 -82.1486 180° South 136 157 6,900  Level Jacksonville Center
Fri 04:00:26 PM 29.0764 -82.1442 174° South 137 158 6,900  Level Jacksonville Center
Fri 04:01:27 PM 29.0347 -82.1444 180° South 137 158 6,900  Level Jacksonville Center
Fri 04:02:28 PM 28.9972 -82.1425 177° South 139 160 6,900  Level Jacksonville Center
Fri 04:03:29 PM 28.9575 -82.1428 180° South 138 159 6,900  Level Jacksonville Center
Fri 04:04:30 PM 28.9200 -82.1431 180° South 137 158 6,900  Level Jacksonville Center
Fri 04:05:31 PM 28.8822 -82.1408 177° South 135 155 6,900  Level Jacksonville Center
Fri 04:06:32 PM 28.8406 -82.1411 180° South 134 154 6,900  Level Jacksonville Center
Fri 04:07:27 PM 28.8072 -82.1392 177° South 134 154 6,900  Level Jacksonville Center
Fri 04:08:34 PM 28.7675 -82.1394 180° South 134 154 6,900  Level Jacksonville Center
Fri 04:10:55 PM 28.6833 -82.1333 176° South 133 153 6,900 30 Level Tampa TRACON
Fri 04:11:55 PM 28.6500 -82.1333 180° South 133 153 7,000  Climbing Tampa TRACON
Fri 04:13:00 PM 28.6000 -82.1333 180° South 134 154 6,900  Descending Tampa TRACON
Fri 04:13:55 PM 28.5667 -82.1167 156° South 134 154 7,000 53 Climbing Tampa TRACON
Fri 04:14:54 PM 28.5333 -82.1167 180° South 133 153 7,000  Level Tampa TRACON
Fri 04:15:49 PM 28.5000 -82.1000 156° South 136 157 7,000  Level Tampa TRACON
Fri 04:16:49 PM 28.4667 -82.1000 180° South 134 154 7,000  Level Tampa TRACON
Fri 04:17:49 PM 28.4333 -82.1000 180° South 131 151 7,000  Level Tampa TRACON
Fri 04:18:49 PM 28.3833 -82.0833 164° South 137 158 7,000  Level Tampa TRACON
Fri 04:19:49 PM 28.3500 -82.0833 180° South 137 158 7,000  Level Tampa TRACON
Fri 04:20:49 PM 28.3167 -82.0833 180° South 142 163 7,000  Level Tampa TRACON
Fri 04:21:49 PM 28.2667 -82.0667 164° South 140 161 7,000  Level Tampa TRACON
Fri 04:22:49 PM 28.2333 -82.0667 180° South 139 160 7,000  Level Tampa TRACON
Fri 04:23:49 PM 28.2000 -82.0500 156° South 137 158 7,000  Level Tampa TRACON
Fri 04:24:49 PM 28.1667 -82.0500 180° South 139 160 7,000  Level Tampa TRACON
Fri 04:25:49 PM 28.1167 -82.0333 164° South 135 155 7,000  Level Tampa TRACON
Fri 04:26:49 PM 28.0833 -82.0333 180° South 138 159 7,000  Level Tampa TRACON
Fri 04:27:43 PM 28.0500 -82.0333 180° South 138 159 7,000  Level Tampa TRACON
Fri 04:30:02 PM 27.9706 -82.0097 165° South 121 139 7,000  Level Miami Center
Fri 04:31:02 PM 27.9336 -81.9892 154° Southeast 128 147 7,000 50 Level Miami Center
Fri 04:32:02 PM 27.8989 -81.9711 155° Southeast 133 153 7,100 50 Climbing Miami Center
Fri 04:33:02 PM 27.8617 -81.9578 162° South 133 153 7,100  Level Miami Center
Fri 04:34:02 PM 27.8247 -81.9444 162° South 138 159 7,100 -50 Level Miami Center
Fri 04:35:02 PM 27.7875 -81.9286 159° South 144 166 7,000  Descending Miami Center
Fri 04:36:02 PM 27.7525 -81.9153 161° South 144 166 7,100  Climbing Miami Center
Fri 04:37:02 PM 27.7108 -81.9181 183° South 139 160 7,000 -50 Descending Miami Center
Fri 04:38:02 PM 27.6750 -81.9236 188° South 144 166 7,000  Level Miami Center
Fri 04:39:02 PM 27.6375 -81.9267 184° South 144 166 7,000 50 Level Miami Center
Fri 04:40:02 PM 27.6039 -81.9300 185° South 144 166 7,100  Climbing Miami Center
Fri 04:41:02 PM 27.5664 -81.9328 184° South 144 166 7,000  Descending Miami Center
Fri 04:42:02 PM 27.5306 -81.9383 188° South 144 166 7,100 50 Climbing Miami Center
Fri 04:43:02 PM 27.4950 -81.9414 184° South 144 166 7,100 -50 Level Miami Center
Fri 04:44:02 PM 27.4572 -81.9444 184° South 144 166 7,000  Descending Miami Center
Fri 04:45:02 PM 27.4217 -81.9475 184° South 144 166 7,100 50 Climbing Miami Center
Fri 04:46:02 PM 27.3819 -81.9528 187° South 144 166 7,100  Level Miami Center
Fri 04:47:02 PM 27.3464 -81.9558 184° South 144 166 7,100 -50 Level Miami Center
Fri 04:48:02 PM 27.3086 -81.9589 184° South 144 166 7,000 -50 Descending Miami Center
Fri 04:49:02 PM 27.2689 -81.9619 184° South 144 166 7,000 -50 Level Miami Center
Fri 04:50:02 PM 27.2311 -81.9647 184° South 144 166 6,900 -50 Descending Miami Center
Fri 04:51:02 PM 27.1936 -81.9678 184° South 144 166 6,900 50 Level Miami Center
Fri 04:52:02 PM 27.1578 -81.9733 188° South 144 166 7,000 50 Climbing Miami Center
Fri 04:53:02 PM 27.1181 -81.9761 184° South 144 166 7,000  Level Miami Center
Fri 04:54:02 PM 27.0806 -81.9792 184° South 144 166 7,000 -50 Level Miami Center
Fri 04:55:02 PM 27.0431 -81.9775 178° South 144 166 6,900  Descending Miami Center
Fri 04:56:02 PM 27.0036 -81.9689 169° South 144 166 7,000 50 Climbing Miami Center
Fri 04:57:02 PM 26.9683 -81.9603 168° South 137 158 7,000  Level Miami Center
Fri 04:59:00 PM 26.9006 -81.9790 166° South  Level FlightAware Approximate
Fri 05:06:00 PM 26.6599 -81.9132 166° South  Level FlightAware Approximate
Fri 05:07:00 PM 26.6255 -81.9039 166° South  Level FlightAware Approximate
Fri 05:08:00 PM 26.5911 -81.8945 166° South  Level FlightAware Approximate
Fri 05:09:00 PM 26.5567 -81.8851 166° South  Level FlightAware Approximate
Fri 05:10:00 PM 26.5226 -81.8742 163° South  Level FlightAware Approximate
Fri 05:11:00 PM 26.4884 -81.8643 170° South  Level FlightAware Approximate
Fri 05:12:00 PM 26.4536 -81.8574 170° South  Level FlightAware Approximate
Fri 05:13:00 PM 26.4187 -81.8504 170° South  Level FlightAware Approximate
Fri 05:14:00 PM 26.3847 -81.8393 163° South  Level FlightAware Approximate
Fri 05:15:00 PM 26.3508 -81.8280 163° South  Level FlightAware Approximate
Fri 05:16:00 PM 26.3169 -81.8167 163° South  Level FlightAware Approximate
Fri 05:17:00 PM 26.2830 -81.8054 163° South  Level FlightAware Approximate
Fri 05:18:00 PM 26.2491 -81.7941 163° South  Level FlightAware Approximate
Fri 05:19:00 PM 26.2151 -81.7829 167° South  Level FlightAware Approximate
Fri 05:20:00 PM 26.1806 -81.7743 167° South  Level FlightAware Approximate
Fri 05:21:00 PM 26.1500 -81.7667 167° South  Level FlightAware Approximate
Fri 05:22:00 PM 26.1524 -81.7756 167° South  Level Estimated
Fri 05:23:00 PM 26.1524 -81.7756 167° South  Level Estimated
Fri 05:24:00 PM 26.1524 -81.7756 167° South  Level Estimated
Fri 05:25:00 PM 26.1524 -81.7756 167° South  Level Estimated
Fri 05:26:00 PM 26.1524 -81.7756 167° South  Level Estimated
Fri 05:27:00 PM 26.1524 -81.7756 167° South  Level Estimated
Fri 05:28:00 PM 26.1524 -81.7756 167° South  Level Estimated
Fri 05:29:00 PM 26.1524 -81.7756 167° South  Level Estimated
Fri 05:30:00 PM 26.1524 -81.7756 167° South  Level Estimated
Fri 05:31:00 PM 26.1524 -81.7756 167° South  Level Estimated
Fri 05:32:00 PM 26.1524 -81.7756 167° South  Level Estimated
Fri 05:33:00 PM 26.1524 -81.7756 167° South  Level Estimated
Fri 05:34:00 PM 26.1524 -81.7756 167° South  Level Estimated

Login

Don't have an account? Register now (free) for customized features, flight alerts, and more!